createdAt,value
2022-12-23T00:02:08.742Z,-0.32
2022-12-23T00:04:39.394Z,-0.32
2022-12-23T00:07:08.100Z,-0.28
2022-12-23T00:09:37.343Z,-0.27
2022-12-23T00:12:24.106Z,-0.20
2022-12-23T00:15:07.443Z,-0.17
2022-12-23T00:17:38.838Z,-0.18
2022-12-23T00:20:08.868Z,-0.06
2022-12-23T00:22:54.891Z,-0.05
2022-12-23T00:25:40.662Z,0.02
2022-12-23T00:28:11.811Z,-0.10
2022-12-23T00:30:45.900Z,-0.06
2022-12-23T00:33:17.706Z,0.16
2022-12-23T00:35:46.797Z,-0.08
2022-12-23T00:38:15.772Z,-0.07
2022-12-23T00:41:01.747Z,0.01
2022-12-23T00:43:30.285Z,0.03
2022-12-23T00:45:58.726Z,0.08
2022-12-23T00:48:45.949Z,0.03
2022-12-23T00:51:14.408Z,0.04
2022-12-23T00:53:43.012Z,0.01
2022-12-23T00:56:11.586Z,0.01
2022-12-23T00:58:40.061Z,0.01
2022-12-23T01:01:25.879Z,-0.02
2022-12-23T01:04:13.280Z,0.15
2022-12-23T01:06:41.787Z,0.15
2022-12-23T01:09:10.120Z,0.11
2022-12-23T01:11:38.635Z,0.14
2022-12-23T01:14:09.394Z,0.15
2022-12-23T01:16:38.696Z,0.17
2022-12-23T01:19:11.752Z,0.25
2022-12-23T01:21:40.057Z,0.24
2022-12-23T01:24:08.920Z,0.17
2022-12-23T01:26:37.371Z,0.25
2022-12-23T01:29:05.773Z,0.08
2022-12-23T01:31:34.207Z,0.13
2022-12-23T01:34:02.768Z,0.14
2022-12-23T01:36:32.780Z,0.31
2022-12-23T01:39:01.340Z,0.42
2022-12-23T01:41:48.146Z,0.40
2022-12-23T01:44:51.365Z,0.25
2022-12-23T01:47:23.755Z,0.27
2022-12-23T01:49:54.481Z,0.38
2022-12-23T01:52:24.450Z,0.58
2022-12-23T01:54:54.433Z,0.43
2022-12-23T01:57:23.520Z,0.51
2022-12-23T02:00:09.599Z,0.44
2022-12-23T02:02:55.943Z,0.56
2022-12-23T02:05:24.751Z,0.69
2022-12-23T02:08:13.051Z,0.41
2022-12-23T02:10:53.512Z,0.37
2022-12-23T02:13:27.891Z,0.22
2022-12-23T02:16:17.822Z,0.42
2022-12-23T02:19:03.245Z,0.25
2022-12-23T02:21:38.788Z,0.15
2022-12-23T02:24:32.297Z,0.13
2022-12-23T02:27:11.844Z,0.10
2022-12-23T02:30:13.617Z,0.15
2022-12-23T02:32:56.346Z,0.08
2022-12-23T02:35:30.126Z,0.22
2022-12-23T02:38:04.290Z,0.21
2022-12-23T02:40:37.559Z,0.26
2022-12-23T02:43:08.515Z,0.19
2022-12-23T02:45:41.310Z,0.19
2022-12-23T02:48:14.693Z,0.17
2022-12-23T02:50:44.567Z,0.31
2022-12-23T02:53:17.887Z,0.16
2022-12-23T02:55:47.061Z,0.66
2022-12-23T02:58:17.893Z,0.62
2022-12-23T03:00:47.389Z,0.61
2022-12-23T03:03:21.352Z,0.62
2022-12-23T03:05:51.722Z,0.39
2022-12-23T03:08:23.566Z,0.44
2022-12-23T03:11:00.692Z,0.36
2022-12-23T03:13:47.984Z,0.36
2022-12-23T03:16:23.089Z,0.40
2022-12-23T03:19:04.263Z,0.45
2022-12-23T03:21:37.251Z,0.44
2022-12-23T03:24:12.282Z,0.45
2022-12-23T03:26:43.787Z,0.49
2022-12-23T03:29:15.704Z,0.48
2022-12-23T03:31:44.509Z,0.51
2022-12-23T03:34:17.099Z,0.51
2022-12-23T03:36:48.859Z,0.60
2022-12-23T03:39:20.499Z,1.01
2022-12-23T03:42:00.455Z,0.98
2022-12-23T03:44:31.665Z,0.80
2022-12-23T03:47:04.812Z,0.71
2022-12-23T03:49:38.352Z,0.79
2022-12-23T03:52:09.958Z,0.61
2022-12-23T03:54:44.444Z,0.60
2022-12-23T03:57:15.239Z,0.55
2022-12-23T03:59:45.448Z,0.55
2022-12-23T04:02:18.822Z,0.54
2022-12-23T04:04:58.980Z,0.52
2022-12-23T04:07:31.623Z,0.43
2022-12-23T04:10:00.336Z,0.43
2022-12-23T04:12:29.235Z,0.42
2022-12-23T04:14:57.538Z,0.43
2022-12-23T04:17:25.968Z,0.47
2022-12-23T04:19:56.350Z,0.57
2022-12-23T04:22:26.140Z,0.65
2022-12-23T04:24:55.491Z,0.65
2022-12-23T04:27:23.994Z,0.73
2022-12-23T04:29:52.375Z,0.73
2022-12-23T04:32:20.811Z,0.91
2022-12-23T04:34:49.284Z,0.86
2022-12-23T04:37:19.058Z,0.74
2022-12-23T04:39:48.669Z,1.25
2022-12-23T04:42:17.645Z,1.15
2022-12-23T04:44:45.912Z,1.03
2022-12-23T04:47:14.236Z,1.17
2022-12-23T04:49:42.551Z,1.00
2022-12-23T04:52:10.943Z,0.69
2022-12-23T04:54:45.979Z,0.45
2022-12-23T04:57:14.920Z,0.47
2022-12-23T04:59:43.437Z,0.50
2022-12-23T05:02:12.116Z,0.52
2022-12-23T05:04:40.640Z,0.49
2022-12-23T05:07:08.981Z,0.54
2022-12-23T05:09:37.312Z,0.63
2022-12-23T05:12:07.813Z,0.56
2022-12-23T05:14:36.260Z,0.54
2022-12-23T05:17:07.733Z,0.58
2022-12-23T05:19:36.476Z,0.65
2022-12-23T05:22:04.982Z,0.66
2022-12-23T05:24:37.723Z,0.67
2022-12-23T05:27:07.615Z,0.63
2022-12-23T05:29:37.354Z,0.60
2022-12-23T05:32:06.870Z,0.64
2022-12-23T05:34:35.448Z,0.66
2022-12-23T05:37:04.797Z,0.56
2022-12-23T05:39:33.124Z,0.63
2022-12-23T05:42:01.491Z,0.72
2022-12-23T05:44:31.327Z,0.72
2022-12-23T05:46:59.589Z,0.70
2022-12-23T05:49:28.070Z,0.69
2022-12-23T05:51:56.362Z,0.66
2022-12-23T05:54:24.771Z,0.88
2022-12-23T05:56:53.496Z,0.93
2022-12-23T05:59:23.516Z,0.63
2022-12-23T06:01:56.243Z,0.54
2022-12-23T06:04:25.710Z,0.60
2022-12-23T06:06:55.780Z,0.58
2022-12-23T06:09:27.698Z,0.58
2022-12-23T06:11:57.320Z,0.65
2022-12-23T06:14:29.079Z,0.61
2022-12-23T06:17:02.514Z,0.58
2022-12-23T06:19:31.041Z,0.64
2022-12-23T06:21:59.739Z,0.58
2022-12-23T06:24:28.779Z,0.71
2022-12-23T06:26:57.825Z,0.72
2022-12-23T06:29:26.245Z,0.55
2022-12-23T06:31:54.711Z,0.49
2022-12-23T06:34:24.649Z,0.63
2022-12-23T06:36:53.528Z,0.67
2022-12-23T06:39:21.859Z,0.59
2022-12-23T06:41:50.184Z,0.69
2022-12-23T06:44:18.664Z,0.60
2022-12-23T06:46:48.789Z,0.55
2022-12-23T06:49:18.544Z,0.55
2022-12-23T06:51:48.282Z,0.55
2022-12-23T06:54:16.654Z,0.63
2022-12-23T06:56:45.253Z,0.52
2022-12-23T06:59:13.910Z,0.49
2022-12-23T07:01:42.929Z,0.40
2022-12-23T07:04:11.582Z,0.41
2022-12-23T07:06:40.387Z,0.37
2022-12-23T07:09:12.589Z,0.37
2022-12-23T07:11:41.788Z,0.37
2022-12-23T07:14:10.439Z,0.33
2022-12-23T07:16:38.868Z,0.27
2022-12-23T07:19:07.457Z,0.29
2022-12-23T07:21:36.786Z,0.31
2022-12-23T07:24:05.878Z,0.30
2022-12-23T07:26:36.019Z,0.28
2022-12-23T07:29:05.294Z,0.25
2022-12-23T07:31:33.722Z,0.27
2022-12-23T07:34:02.287Z,0.28
2022-12-23T07:36:30.615Z,0.30
2022-12-23T07:38:58.988Z,0.40
2022-12-23T07:41:27.311Z,0.41
2022-12-23T07:43:56.994Z,0.50
2022-12-23T07:46:25.528Z,0.63
2022-12-23T07:48:53.896Z,0.75
2022-12-23T07:51:22.295Z,0.89
2022-12-23T07:53:52.336Z,0.92
2022-12-23T07:56:21.001Z,1.02
2022-12-23T07:58:50.590Z,0.89
2022-12-23T08:01:20.879Z,0.98
2022-12-23T08:03:49.524Z,1.13
2022-12-23T08:06:18.613Z,1.40
2022-12-23T08:08:47.776Z,1.67
2022-12-23T08:11:17.976Z,1.86
2022-12-23T08:13:48.353Z,1.96
2022-12-23T08:16:16.890Z,2.22
2022-12-23T08:18:46.682Z,2.43
2022-12-23T08:21:17.605Z,2.67
2022-12-23T08:23:48.398Z,2.90
2022-12-23T08:26:18.881Z,3.20
2022-12-23T08:28:47.878Z,3.36
2022-12-23T08:31:18.541Z,3.47
2022-12-23T08:33:50.898Z,3.59
2022-12-23T08:36:23.266Z,3.81
2022-12-23T08:38:52.387Z,4.10
2022-12-23T08:41:24.188Z,4.10
2022-12-23T08:43:54.303Z,4.26
2022-12-23T08:46:25.473Z,4.32
2022-12-23T08:48:55.693Z,4.52
2022-12-23T08:51:25.570Z,4.78
2022-12-23T08:54:00.154Z,4.96
2022-12-23T08:56:31.043Z,5.30
2022-12-23T08:59:00.245Z,5.49
2022-12-23T09:01:31.925Z,5.72
2022-12-23T09:04:03.411Z,6.32
2022-12-23T09:06:34.649Z,6.26
2022-12-23T09:09:03.138Z,6.46
2022-12-23T09:11:31.715Z,6.74
2022-12-23T09:14:01.717Z,6.84
2022-12-23T09:16:30.503Z,7.04
2022-12-23T09:18:59.238Z,6.96
2022-12-23T09:21:30.038Z,7.08
2022-12-23T09:23:58.425Z,7.31
2022-12-23T09:26:28.337Z,7.28
2022-12-23T09:28:57.438Z,7.51
2022-12-23T09:31:34.015Z,7.93
2022-12-23T09:34:04.558Z,7.84
2022-12-23T09:36:39.711Z,8.08
2022-12-23T09:39:08.192Z,8.18
2022-12-23T09:42:01.878Z,8.20
2022-12-23T09:44:43.261Z,8.74
2022-12-23T09:47:15.659Z,8.77
2022-12-23T09:49:50.997Z,9.22
2022-12-23T09:52:26.665Z,8.23
2022-12-23T09:54:56.669Z,8.19
2022-12-23T09:57:32.136Z,8.11
2022-12-23T10:00:08.229Z,8.24
2022-12-23T10:02:44.771Z,8.34
2022-12-23T10:05:22.267Z,8.46
2022-12-23T10:07:55.051Z,8.63
2022-12-23T10:10:30.319Z,8.43
2022-12-23T10:12:59.941Z,8.43
2022-12-23T10:15:31.418Z,8.72
2022-12-23T10:18:04.118Z,8.13
2022-12-23T10:20:39.264Z,8.54
2022-12-23T10:23:15.853Z,8.62
2022-12-23T10:25:49.952Z,9.26
2022-12-23T10:28:19.045Z,9.39
2022-12-23T10:31:23.781Z,9.35
2022-12-23T10:33:51.559Z,9.63
2022-12-23T10:36:29.021Z,9.96
2022-12-23T10:39:03.037Z,9.87
2022-12-23T10:41:37.925Z,10.25
2022-12-23T10:44:31.074Z,10.45
2022-12-23T10:47:04.776Z,10.60
2022-12-23T10:49:41.898Z,10.32
2022-12-23T10:52:14.630Z,9.92
2022-12-23T10:54:46.976Z,10.00
2022-12-23T10:57:19.204Z,9.51
2022-12-23T10:59:53.203Z,9.28
2022-12-23T11:02:40.261Z,8.97
2022-12-23T11:05:14.601Z,9.16
2022-12-23T11:07:46.508Z,9.63
2022-12-23T11:10:21.513Z,10.19
2022-12-23T11:12:55.627Z,10.04
2022-12-23T11:15:30.909Z,9.97
2022-12-23T11:18:08.848Z,10.77
2022-12-23T11:20:39.063Z,11.17
2022-12-23T11:23:25.820Z,11.20
2022-12-23T11:26:02.367Z,11.56
2022-12-23T11:28:31.774Z,11.66
2022-12-23T11:31:05.792Z,11.62
2022-12-23T11:33:36.588Z,10.92
2022-12-23T11:36:07.771Z,11.54
2022-12-23T11:38:37.784Z,11.58
2022-12-23T11:41:08.265Z,11.81
2022-12-23T11:43:36.780Z,12.21
2022-12-23T11:46:27.238Z,11.68
2022-12-23T11:49:15.783Z,11.91
2022-12-23T11:51:45.334Z,12.63
2022-12-23T11:54:19.190Z,12.78
2022-12-23T11:56:53.154Z,12.36
2022-12-23T11:59:34.217Z,12.27
2022-12-23T12:02:05.314Z,12.63
2022-12-23T12:04:36.595Z,13.01
2022-12-23T12:07:05.529Z,13.10
2022-12-23T12:09:35.958Z,14.00
2022-12-23T12:12:10.307Z,13.65
2022-12-23T12:14:43.445Z,13.95
2022-12-23T12:17:17.290Z,13.93
2022-12-23T12:19:55.636Z,13.22
2022-12-23T12:22:33.228Z,13.72
2022-12-23T12:25:08.070Z,14.35
2022-12-23T12:27:42.805Z,13.99
2022-12-23T12:30:20.265Z,14.13
2022-12-23T12:32:55.868Z,13.68
2022-12-23T12:35:29.077Z,13.56
2022-12-23T12:38:01.844Z,13.31
2022-12-23T12:40:34.275Z,12.75
2022-12-23T12:43:08.684Z,12.46
2022-12-23T12:45:42.173Z,11.47
2022-12-23T12:48:39.079Z,11.37
2022-12-23T12:51:15.075Z,11.34
2022-12-23T12:53:52.444Z,11.10
2022-12-23T12:56:26.860Z,10.97
2022-12-23T12:58:56.649Z,11.10
2022-12-23T13:01:37.200Z,10.72
2022-12-23T13:04:30.096Z,10.75
2022-12-23T13:07:04.064Z,10.45
2022-12-23T13:09:41.289Z,10.25
2022-12-23T13:12:15.984Z,10.32
2022-12-23T13:14:56.232Z,10.07
2022-12-23T13:17:28.149Z,10.06
2022-12-23T13:20:01.780Z,10.10
2022-12-23T13:22:34.377Z,10.11
2022-12-23T13:25:06.280Z,10.13
2022-12-23T13:27:36.825Z,10.14
2022-12-23T13:30:12.228Z,10.11
2022-12-23T13:33:14.528Z,10.13
2022-12-23T13:36:06.269Z,10.16
2022-12-23T13:38:46.138Z,10.11
2022-12-23T13:41:26.654Z,10.06
2022-12-23T13:43:57.595Z,9.98
2022-12-23T13:46:38.896Z,10.24
2022-12-23T13:49:11.825Z,10.20
2022-12-23T13:51:45.594Z,10.10
2022-12-23T13:54:21.659Z,10.20
2022-12-23T13:56:55.064Z,10.17
2022-12-23T13:59:25.601Z,10.12
2022-12-23T14:01:55.555Z,10.00
2022-12-23T14:04:33.444Z,10.07
2022-12-23T14:07:05.287Z,10.04
2022-12-23T14:09:38.048Z,9.91
2022-12-23T14:12:21.661Z,9.83
2022-12-23T14:15:15.730Z,9.70
2022-12-23T14:17:53.153Z,9.66
2022-12-23T14:20:31.519Z,9.71
2022-12-23T14:23:12.382Z,9.72
2022-12-23T14:25:56.133Z,9.64
2022-12-23T14:28:38.894Z,9.59
2022-12-23T14:31:08.117Z,9.58
2022-12-23T14:33:39.221Z,9.55
2022-12-23T14:36:24.387Z,9.52
2022-12-23T14:39:31.266Z,9.53
2022-12-23T14:42:06.037Z,9.59
2022-12-23T14:44:49.925Z,9.12
2022-12-23T14:47:34.200Z,9.02
2022-12-23T14:50:57.637Z,8.93
2022-12-23T14:53:26.897Z,8.73
2022-12-23T14:56:23.958Z,8.58
2022-12-23T14:59:02.257Z,8.38
2022-12-23T15:01:35.078Z,8.31
2022-12-23T15:04:10.344Z,8.28
2022-12-23T15:06:42.964Z,8.27
2022-12-23T15:09:20.717Z,8.15
2022-12-23T15:11:49.747Z,8.04
2022-12-23T15:14:26.471Z,7.97
2022-12-23T15:16:57.586Z,7.91
2022-12-23T15:19:28.781Z,7.80
2022-12-23T15:22:19.934Z,7.66
2022-12-23T15:24:51.442Z,7.52
2022-12-23T15:27:30.117Z,7.46
2022-12-23T15:30:00.445Z,7.61
2022-12-23T15:32:29.797Z,7.50
2022-12-23T15:35:03.557Z,7.30
2022-12-23T15:37:35.586Z,7.37
2022-12-23T15:40:12.687Z,7.81
2022-12-23T15:42:48.699Z,7.72
2022-12-23T15:45:32.775Z,7.43
2022-12-23T15:48:02.021Z,7.32
2022-12-23T15:50:41.795Z,7.17
2022-12-23T15:53:17.867Z,7.08
2022-12-23T15:55:49.858Z,7.05
2022-12-23T15:58:21.994Z,6.90
2022-12-23T16:00:55.908Z,6.75
2022-12-23T16:03:36.866Z,6.70
2022-12-23T16:06:25.596Z,6.60
2022-12-23T16:09:03.094Z,6.46
2022-12-23T16:11:51.905Z,6.42
2022-12-23T16:14:30.053Z,6.34
2022-12-23T16:17:00.183Z,6.38
2022-12-23T16:19:41.785Z,6.37
2022-12-23T16:22:19.718Z,6.30
2022-12-23T16:24:55.291Z,6.26
2022-12-23T16:27:32.053Z,6.33
2022-12-23T16:30:04.533Z,6.34
2022-12-23T16:32:33.365Z,6.32
2022-12-23T16:35:11.614Z,6.32
2022-12-23T16:37:43.403Z,6.25
2022-12-23T16:40:16.763Z,6.38
2022-12-23T16:42:46.323Z,6.33
2022-12-23T16:45:14.728Z,6.32
2022-12-23T16:47:44.349Z,6.42
2022-12-23T16:50:14.602Z,6.37
2022-12-23T16:52:43.141Z,6.34
2022-12-23T16:55:20.791Z,6.38
2022-12-23T16:57:50.652Z,6.34
2022-12-23T17:00:22.081Z,6.35
2022-12-23T17:02:50.596Z,6.36
2022-12-23T17:05:21.008Z,6.35
2022-12-23T17:07:49.371Z,6.38
2022-12-23T17:10:19.849Z,6.43
2022-12-23T17:12:48.585Z,6.41
2022-12-23T17:15:19.492Z,6.59
2022-12-23T17:17:49.453Z,6.25
2022-12-23T17:20:18.031Z,6.31
2022-12-23T17:22:48.594Z,6.15
2022-12-23T17:25:26.326Z,6.27
2022-12-23T17:27:55.779Z,6.15
2022-12-23T17:30:25.990Z,6.29
2022-12-23T17:32:58.871Z,6.44
2022-12-23T17:35:27.978Z,6.50
2022-12-23T17:37:56.952Z,6.67
2022-12-23T17:40:26.679Z,6.34
2022-12-23T17:42:55.141Z,6.02
2022-12-23T17:45:25.943Z,6.34
2022-12-23T17:47:54.812Z,6.44
2022-12-23T17:50:23.980Z,6.10
2022-12-23T17:52:52.731Z,5.97
2022-12-23T17:55:23.918Z,6.05
2022-12-23T17:57:54.927Z,6.02
2022-12-23T18:00:31.969Z,6.12
2022-12-23T18:03:03.147Z,6.16
2022-12-23T18:05:33.091Z,6.39
2022-12-23T18:08:02.459Z,6.17
2022-12-23T18:10:35.322Z,6.06
2022-12-23T18:13:07.699Z,6.28
2022-12-23T18:15:37.301Z,6.33
2022-12-23T18:18:15.271Z,6.19
2022-12-23T18:20:48.796Z,6.16
2022-12-23T18:23:20.610Z,6.57
2022-12-23T18:25:48.966Z,6.40
2022-12-23T18:28:18.759Z,6.05
2022-12-23T18:30:47.193Z,6.06
2022-12-23T18:33:15.629Z,6.00
2022-12-23T18:35:45.255Z,6.39
2022-12-23T18:38:14.046Z,6.45
2022-12-23T18:40:43.024Z,6.78
2022-12-23T18:43:21.186Z,6.47
2022-12-23T18:45:53.157Z,6.11
2022-12-23T18:48:22.461Z,6.24
2022-12-23T18:50:51.011Z,6.14
2022-12-23T18:53:24.718Z,5.90
2022-12-23T18:55:54.438Z,5.89
2022-12-23T18:58:24.657Z,5.93
2022-12-23T19:00:54.384Z,6.06
2022-12-23T19:03:25.681Z,6.16
2022-12-23T19:05:55.415Z,6.63
2022-12-23T19:08:26.972Z,6.40
2022-12-23T19:10:56.596Z,6.32
2022-12-23T19:13:27.150Z,6.37
2022-12-23T19:15:55.967Z,6.22
2022-12-23T19:18:24.550Z,6.24
2022-12-23T19:20:53.100Z,6.29
2022-12-23T19:23:21.457Z,6.23
2022-12-23T19:25:55.237Z,6.28
2022-12-23T19:28:24.248Z,6.26
2022-12-23T19:30:54.206Z,6.34
2022-12-23T19:33:22.537Z,6.26
2022-12-23T19:35:51.327Z,6.21
2022-12-23T19:38:19.865Z,6.19
2022-12-23T19:40:57.528Z,6.11
2022-12-23T19:43:26.106Z,6.13
2022-12-23T19:45:59.861Z,6.13
2022-12-23T19:48:29.168Z,6.13
2022-12-23T19:50:58.785Z,6.14
2022-12-23T19:53:27.703Z,6.12
2022-12-23T19:55:59.912Z,6.07
2022-12-23T19:58:28.374Z,6.09
2022-12-23T20:01:08.627Z,6.13
2022-12-23T20:03:37.865Z,6.18
2022-12-23T20:06:07.604Z,6.10
2022-12-23T20:08:36.412Z,6.00
2022-12-23T20:11:07.143Z,5.91
2022-12-23T20:13:37.550Z,5.84
2022-12-23T20:16:09.230Z,5.84
2022-12-23T20:18:38.313Z,5.84
2022-12-23T20:21:07.968Z,5.79
2022-12-23T20:23:37.183Z,5.54
2022-12-23T20:26:06.959Z,5.18
2022-12-23T20:28:35.631Z,5.05
2022-12-23T20:31:10.463Z,4.98
2022-12-23T20:33:40.312Z,4.84
2022-12-23T20:36:09.707Z,4.87
2022-12-23T20:38:39.863Z,4.80
2022-12-23T20:41:08.920Z,4.78
2022-12-23T20:43:38.231Z,4.82
2022-12-23T20:46:09.454Z,4.85
2022-12-23T20:48:38.394Z,4.91
2022-12-23T20:51:08.249Z,4.88
2022-12-23T20:53:37.023Z,4.96
2022-12-23T20:56:07.977Z,4.81
2022-12-23T20:58:56.322Z,4.87
2022-12-23T21:01:28.975Z,4.88
2022-12-23T21:03:58.613Z,4.94
2022-12-23T21:06:27.685Z,4.82
2022-12-23T21:08:58.943Z,4.90
2022-12-23T21:11:29.462Z,4.83
2022-12-23T21:14:06.209Z,4.88
2022-12-23T21:16:38.121Z,4.94
2022-12-23T21:19:07.116Z,4.87
2022-12-23T21:21:35.499Z,4.86
2022-12-23T21:24:05.365Z,5.00
2022-12-23T21:26:35.313Z,4.95
2022-12-23T21:29:05.635Z,4.85
2022-12-23T21:31:36.835Z,4.97
2022-12-23T21:34:05.530Z,4.87
2022-12-23T21:36:35.563Z,4.79
2022-12-23T21:39:05.592Z,4.72
2022-12-23T21:41:37.384Z,4.88
2022-12-23T21:44:06.487Z,4.83
2022-12-23T21:46:36.701Z,5.17
2022-12-23T21:49:05.296Z,4.99
2022-12-23T21:51:40.153Z,4.79
2022-12-23T21:54:10.040Z,4.69
2022-12-23T21:56:39.095Z,4.58
2022-12-23T21:59:08.782Z,4.58
2022-12-23T22:01:38.590Z,4.65
2022-12-23T22:04:08.038Z,4.72
2022-12-23T22:06:38.302Z,4.67
2022-12-23T22:09:07.871Z,4.56
2022-12-23T22:11:37.940Z,4.50
2022-12-23T22:14:08.726Z,4.52
2022-12-23T22:16:39.086Z,4.50
2022-12-23T22:19:09.955Z,4.41
2022-12-23T22:21:40.358Z,4.33
2022-12-23T22:24:09.629Z,4.29
2022-12-23T22:26:38.691Z,4.28
2022-12-23T22:29:08.263Z,4.30
2022-12-23T22:31:41.008Z,4.32
2022-12-23T22:34:11.276Z,4.25
2022-12-23T22:36:39.649Z,4.28
2022-12-23T22:39:08.549Z,4.24
2022-12-23T22:41:40.193Z,4.29
2022-12-23T22:44:09.361Z,4.27
2022-12-23T22:46:40.132Z,4.27
2022-12-23T22:49:13.402Z,4.23
2022-12-23T22:51:43.221Z,4.27
2022-12-23T22:54:12.513Z,4.26
2022-12-23T22:56:41.248Z,4.22
2022-12-23T22:59:18.325Z,4.33
2022-12-23T23:01:50.010Z,4.33
2022-12-23T23:04:19.514Z,4.23
2022-12-23T23:06:48.057Z,4.19
2022-12-23T23:09:19.451Z,4.19
2022-12-23T23:11:47.970Z,4.13
2022-12-23T23:14:16.899Z,4.15
2022-12-23T23:16:46.020Z,4.30
2022-12-23T23:19:17.334Z,4.43
2022-12-23T23:21:45.676Z,4.11
2022-12-23T23:24:14.440Z,4.15
2022-12-23T23:26:42.944Z,4.11
2022-12-23T23:29:12.983Z,4.08
2022-12-23T23:31:43.191Z,4.09
2022-12-23T23:34:13.256Z,4.07
2022-12-23T23:36:44.699Z,4.04
2022-12-23T23:39:14.335Z,4.00
2022-12-23T23:41:42.892Z,3.94
2022-12-23T23:44:11.827Z,3.86
2022-12-23T23:46:40.578Z,4.21
2022-12-23T23:49:09.627Z,4.17
2022-12-23T23:51:39.063Z,4.10
2022-12-23T23:54:09.301Z,3.89
2022-12-23T23:56:40.002Z,3.70
2022-12-23T23:59:09.508Z,3.71
